Time;durP1;ratioP1;P1;durP2;ratioP2;P2;SDS_P1;SDS_P2;PMS_P1;PMS_P2;Temp;Humidity;BMP_temperature;BMP_pressure;BME280_temperature;BME280_humidity;BME280_pressure;Samples;Min_cycle;Max_cycle;Signal;HPM_P1;HPM_P2
2023/01/15 00:01:27;;;;;;;1999.90;999.90;;;13.40;99.90;;;;;;4959539;28;20051;-83
2023/01/15 00:03:54;;;;;;;1999.90;286.55;;;11.90;99.90;;;;;;4952630;28;20055;-82
2023/01/15 00:06:21;;;;;;;1999.90;999.90;;;13.30;99.90;;;;;;4941079;28;20130;-84
2023/01/15 00:08:47;;;;;;;1999.90;906.35;;;;;;;;;;4950775;28;20059;-83
2023/01/15 00:11:13;;;;;;;1999.90;256.45;;;12.40;99.90;;;;;;4953067;28;20130;-83
2023/01/15 00:13:40;;;;;;;1999.90;999.90;;;;;;;;;;4951355;28;20050;-82
2023/01/15 00:16:12;;;;;;;1999.90;706.30;;;10.90;99.90;;;;;;4953246;29;20477;-84
2023/01/15 00:18:38;;;;;;;1999.90;999.90;;;11.80;99.90;;;;;;4953319;29;20059;-84
2023/01/15 00:21:09;;;;;;;1999.90;999.90;;;12.00;99.90;;;;;;4957786;28;20046;-84
2023/01/15 00:29:06;;;;;;;1999.90;686.92;;;;;;;;;;4943086;29;20127;-83
2023/01/15 00:31:34;;;;;;;1999.90;999.90;;;12.10;99.90;;;;;;4969868;28;20544;-91
2023/01/15 00:34:00;;;;;;;1999.90;999.90;;;11.70;99.90;;;;;;4938929;29;20052;-83
2023/01/15 00:36:26;;;;;;;1999.90;528.85;;;12.70;99.90;;;;;;4938151;29;20477;-84
2023/01/15 00:38:52;;;;;;;1999.90;999.90;;;13.60;99.90;;;;;;4948051;28;20097;-83
2023/01/15 00:41:18;;;;;;;1999.90;295.70;;;;;;;;;;4957197;29;20055;-84
2023/01/15 00:43:44;;;;;;;1999.90;597.00;;;;;;;;;;4943252;28;20060;-84
2023/01/15 00:46:10;;;;;;;1999.90;999.90;;;11.70;99.90;;;;;;4967289;28;20055;-83
2023/01/15 00:48:36;;;;;;;1999.90;791.50;;;13.00;99.90;;;;;;4954360;28;20260;-85
2023/01/15 00:51:03;;;;;;;1999.90;999.90;;;14.50;99.90;;;;;;4955086;28;20078;-85
2023/01/15 00:53:29;;;;;;;1999.90;943.50;;;;;;;;;;4955539;28;20555;-83
2023/01/15 00:55:54;;;;;;;1999.90;999.90;;;13.30;99.90;;;;;;4949542;28;20411;-84
2023/01/15 00:58:20;;;;;;;1999.90;999.90;;;12.30;99.90;;;;;;4946418;28;20134;-85
2023/01/15 01:00:46;;;;;;;1999.90;591.17;;;12.20;99.90;;;;;;4951642;28;20186;-85
2023/01/15 01:03:12;;;;;;;1999.90;999.90;;;10.70;99.90;;;;;;4952387;28;20086;-85
2023/01/15 01:05:37;;;;;;;1999.90;762.90;;;11.70;99.90;;;;;;4954970;28;20043;-87
2023/01/15 01:08:03;;;;;;;1999.90;999.90;;;12.60;99.90;;;;;;4941896;28;20054;-85
2023/01/15 01:10:29;;;;;;;1999.90;999.90;;;12.30;99.90;;;;;;4936997;29;20195;-83
2023/01/15 01:12:55;;;;;;;1999.90;999.90;;;12.10;99.90;;;;;;4937029;29;20106;-85
2023/01/15 01:15:22;;;;;;;1999.90;770.17;;;12.50;99.90;;;;;;4953437;28;20463;-87
2023/01/15 01:17:48;;;;;;;1999.90;999.90;;;11.90;99.90;;;;;;4939449;28;20090;-86
2023/01/15 01:20:15;;;;;;;1999.90;999.90;;;12.70;99.90;;;;;;4934564;29;20047;-85
2023/01/15 01:22:42;;;;;;;1999.90;996.67;;;12.00;99.90;;;;;;4937543;29;20071;-85
2023/01/15 01:25:09;;;;;;;1999.90;581.40;;;12.60;99.90;;;;;;4937293;29;20496;-86
2023/01/15 01:27:34;;;;;;;1999.90;999.90;;;12.50;99.90;;;;;;4966063;28;20047;-86
2023/01/15 01:30:00;;;;;;;1999.90;589.47;;;12.00;99.90;;;;;;4968743;28;20048;-85
2023/01/15 01:32:26;;;;;;;1999.90;811.20;;;14.80;99.90;;;;;;4936995;29;20051;-86
2023/01/15 01:34:52;;;;;;;1999.90;999.90;;;11.80;99.90;;;;;;4972520;28;20047;-86
2023/01/15 01:37:17;;;;;;;1917.55;424.38;;;15.30;99.90;;;;;;4951000;28;20043;-88
2023/01/15 01:39:43;;;;;;;1999.90;507.95;;;11.90;99.90;;;;;;4953385;29;20075;-85
2023/01/15 01:42:14;;;;;;;1999.90;807.83;;;12.50;99.90;;;;;;4939278;29;20055;-85
2023/01/15 01:44:43;;;;;;;1999.90;999.90;;;14.70;99.90;;;;;;4939585;29;20122;-85
2023/01/15 01:47:19;;;;;;;1999.90;999.90;;;12.50;99.90;;;;;;4946642;28;20091;-85
2023/01/15 01:49:48;;;;;;;1999.90;999.90;;;12.20;99.90;;;;;;4939688;28;20054;-84
2023/01/15 01:52:22;;;;;;;1999.90;894.55;;;12.10;99.90;;;;;;4939570;28;20047;-86
2023/01/15 01:54:48;;;;;;;1999.90;790.90;;;12.10;99.90;;;;;;4954807;28;20091;-83
2023/01/15 01:57:15;;;;;;;1999.90;999.90;;;12.10;99.90;;;;;;4955787;28;20051;-84
2023/01/15 01:59:41;;;;;;;1892.55;781.33;;;12.20;99.90;;;;;;4954498;28;20043;-85
2023/01/15 02:02:07;;;;;;;1999.90;974.83;;;12.80;99.90;;;;;;4955329;28;20050;-83
2023/01/15 02:04:34;;;;;;;1999.90;999.90;;;14.60;99.90;;;;;;4955312;28;20054;-83
2023/01/15 02:07:01;;;;;;;1999.90;986.60;;;12.00;99.90;;;;;;4952815;28;20047;-82
2023/01/15 02:09:26;;;;;;;1995.40;397.17;;;12.70;99.90;;;;;;4952990;29;20447;-82
2023/01/15 02:12:00;;;;;;;1999.90;999.90;;;11.80;99.90;;;;;;4967435;28;20126;-82
2023/01/15 02:14:46;;;;;;;1999.90;999.90;;;11.50;99.90;;;;;;4964179;28;20052;-82
2023/01/15 02:17:22;;;;;;;1999.90;999.90;;;11.80;99.90;;;;;;4958153;28;20035;-82
2023/01/15 02:20:22;;;;;;;1999.90;968.15;;;10.40;99.90;;;;;;4968584;28;20052;-82
2023/01/15 02:23:09;;;;;;;1999.90;999.90;;;9.50;99.90;;;;;;4956787;28;20051;-82
2023/01/15 02:26:05;;;;;;;1999.90;999.90;;;12.10;99.90;;;;;;4946750;28;20066;-82
2023/01/15 02:28:37;;;;;;;1969.10;388.77;;;10.90;99.90;;;;;;4935667;28;20066;-81
2023/01/15 02:31:31;;;;;;;1999.90;999.90;;;12.00;99.90;;;;;;4949563;28;20079;-78
2023/01/15 02:34:25;;;;;;;1999.90;999.90;;;12.20;99.90;;;;;;4952752;28;20054;-78
2023/01/15 02:37:02;;;;;;;1999.90;999.90;;;12.40;99.90;;;;;;4950256;28;20044;-77
2023/01/15 02:39:30;;;;;;;1999.90;999.90;;;12.70;99.90;;;;;;4953965;28;20126;-79
2023/01/15 02:41:58;;;;;;;;;;;11.90;99.90;;;;;;4951679;28;20058;-81
2023/01/15 02:44:25;;;;;;;1999.90;999.90;;;11.90;99.90;;;;;;4947304;28;19922;-80
2023/01/15 02:46:54;;;;;;;1999.90;999.90;;;11.90;99.90;;;;;;4944804;28;20066;-80
2023/01/15 02:49:21;;;;;;;1999.90;999.90;;;14.00;99.90;;;;;;4946586;28;20043;-81
2023/01/15 02:52:04;;;;;;;1999.90;999.90;;;12.10;99.90;;;;;;4938600;28;20243;-80
2023/01/15 02:54:40;;;;;;;1999.90;999.90;;;13.80;99.90;;;;;;4949736;29;20054;-80
2023/01/15 02:57:09;;;;;;;1999.90;746.30;;;12.40;99.90;;;;;;4953229;28;20051;-81
2023/01/15 02:59:42;;;;;;;1999.90;999.90;;;12.60;99.90;;;;;;4945969;28;20078;-79
2023/01/15 03:02:14;;;;;;;1999.90;999.90;;;12.50;99.90;;;;;;4942562;29;20110;-79
2023/01/15 03:04:42;;;;;;;1999.90;585.70;;;12.50;99.90;;;;;;4941205;28;20044;-80
2023/01/15 03:07:16;;;;;;;;;;;12.10;99.90;;;;;;4936619;28;20535;-80
2023/01/15 03:09:42;;;;;;;1999.90;999.90;;;12.70;99.90;;;;;;4950357;28;19922;-81
2023/01/15 03:12:19;;;;;;;1999.90;999.90;;;12.40;99.90;;;;;;4935922;28;20048;-80
2023/01/15 03:15:04;;;;;;;1999.90;999.90;;;12.40;99.90;;;;;;4946409;28;20058;-77
2023/01/15 03:17:44;;;;;;;1999.90;999.90;;;13.40;99.90;;;;;;4953596;29;20274;-77
2023/01/15 03:20:23;;;;;;;1991.50;457.35;;;12.40;99.90;;;;;;4938814;28;20058;-78
2023/01/15 03:22:55;;;;;;;1999.90;999.90;;;12.30;99.90;;;;;;4963447;28;20121;-78
2023/01/15 03:25:24;;;;;;;1999.90;640.58;;;12.80;99.90;;;;;;4943760;28;20058;-78
2023/01/15 03:27:54;;;;;;;1952.68;468.35;;;12.20;99.90;;;;;;4942792;28;20529;-78
2023/01/15 03:30:21;;;;;;;1999.90;999.90;;;14.00;99.90;;;;;;4948617;28;20058;-78
2023/01/15 03:32:47;;;;;;;1999.90;913.97;;;12.10;99.90;;;;;;4948238;28;20047;-80
2023/01/15 03:35:38;;;;;;;1999.90;995.28;;;12.30;99.90;;;;;;4951568;28;20596;-77
2023/01/15 03:38:03;;;;;;;1999.90;350.50;;;12.20;99.90;;;;;;4950483;28;20047;-77
2023/01/15 03:40:31;;;;;;;1999.90;999.90;;;11.80;99.90;;;;;;4947466;28;20098;-77
2023/01/15 03:45:51;;;;;;;1999.90;999.90;;;12.20;99.90;;;;;;4941910;28;20103;-78
2023/01/15 03:48:36;;;;;;;1999.90;999.90;;;11.90;99.90;;;;;;4949603;28;20062;-77
2023/01/15 03:51:16;;;;;;;1917.88;461.83;;;12.20;99.90;;;;;;4946484;28;20074;-77
2023/01/15 03:53:54;;;;;;;1292.78;280.23;;;12.10;99.90;;;;;;4958830;28;20138;-77
2023/01/15 03:56:54;;;;;;;1999.90;999.90;;;12.10;99.90;;;;;;4943715;28;20504;-77
2023/01/15 03:59:32;;;;;;;1999.90;999.90;;;11.90;99.90;;;;;;4934122;28;20186;-77
2023/01/15 04:02:00;;;;;;;1999.90;999.90;;;12.20;99.90;;;;;;4947750;28;20503;-77
2023/01/15 04:04:26;;;;;;;;;;;12.20;99.90;;;;;;4944852;28;20084;-78
2023/01/15 04:06:54;;;;;;;1999.90;999.90;;;12.00;99.90;;;;;;4952282;28;19969;-77
2023/01/15 04:09:20;;;;;;;1999.90;837.33;;;11.90;99.90;;;;;;4938125;28;20055;-77
2023/01/15 04:11:46;;;;;;;1999.90;999.90;;;12.00;99.90;;;;;;4947103;28;20519;-77
2023/01/15 04:14:13;;;;;;;1999.90;910.58;;;12.40;99.90;;;;;;4951204;28;20058;-77
2023/01/15 04:16:39;;;;;;;1999.90;999.90;;;13.00;99.90;;;;;;4950194;29;20043;-77
2023/01/15 04:19:04;;;;;;;1999.90;999.90;;;12.20;99.90;;;;;;4934471;28;20094;-79
2023/01/15 04:21:30;;;;;;;1999.90;900.78;;;11.90;99.90;;;;;;4943208;28;20059;-77
2023/01/15 04:23:56;;;;;;;1999.90;999.90;;;12.00;99.90;;;;;;4950616;28;20043;-77
2023/01/15 04:26:21;;;;;;;1999.90;709.63;;;11.80;99.90;;;;;;4950271;28;20130;-77
2023/01/15 04:28:47;;;;;;;1999.90;999.90;;;12.80;99.90;;;;;;4947780;29;20051;-77
2023/01/15 04:31:13;;;;;;;1999.90;816.90;;;11.80;99.90;;;;;;4942984;28;20079;-77
2023/01/15 04:33:39;;;;;;;1999.90;999.90;;;12.50;99.90;;;;;;4948170;28;20097;-77
2023/01/15 04:36:07;;;;;;;1999.90;824.97;;;11.90;99.90;;;;;;4945824;28;20059;-77
2023/01/15 04:38:35;;;;;;;1999.90;884.33;;;13.40;99.90;;;;;;4953183;29;20098;-77
2023/01/15 04:44:07;;;;;;;1999.90;999.90;;;12.00;99.90;;;;;;4940835;29;20409;-77
2023/01/15 04:46:42;;;;;;;1999.90;735.95;;;12.00;99.90;;;;;;4941033;28;20763;-77
2023/01/15 04:49:10;;;;;;;1999.90;872.30;;;11.80;99.90;;;;;;4950951;28;20405;-77
2023/01/15 04:51:38;;;;;;;1999.90;999.90;;;11.80;99.90;;;;;;4952525;29;20097;-76
2023/01/15 04:54:05;;;;;;;1999.90;785.17;;;11.70;99.90;;;;;;4951627;28;20489;-77
2023/01/15 04:56:31;;;;;;;1999.90;999.90;;;11.80;99.90;;;;;;4951816;28;20082;-77
2023/01/15 04:59:00;;;;;;;1999.90;886.80;;;12.00;99.90;;;;;;4938980;29;20142;-78
2023/01/15 05:01:27;;;;;;;1999.90;999.90;;;;;;;;;;4964057;28;20069;-77
2023/01/15 05:03:52;;;;;;;1999.90;999.90;;;11.90;99.90;;;;;;4945745;28;20054;-77
2023/01/15 05:06:18;;;;;;;1999.90;404.02;;;11.90;99.90;;;;;;4948698;28;20055;-77
2023/01/15 05:08:44;;;;;;;1999.90;999.90;;;11.70;99.90;;;;;;4948686;28;20045;-78
2023/01/15 05:11:10;;;;;;;1999.90;999.90;;;11.70;99.90;;;;;;4950063;29;20418;-76
2023/01/15 05:13:36;;;;;;;1999.90;999.90;;;11.50;99.90;;;;;;4936847;29;20051;-78
2023/01/15 05:16:17;;;;;;;1999.90;366.70;;;11.80;99.90;;;;;;4947385;29;20560;-77
2023/01/15 05:18:44;;;;;;;1999.90;301.73;;;11.90;99.90;;;;;;4955898;29;20058;-78
2023/01/15 05:21:34;;;;;;;1999.90;999.90;;;11.80;99.90;;;;;;4954969;28;20059;-78
2023/01/15 05:24:03;;;;;;;1999.90;999.90;;;11.70;99.90;;;;;;4947133;29;20538;-77
2023/01/15 05:26:30;;;;;;;1999.90;947.03;;;10.30;99.90;;;;;;4953973;28;20469;-78
2023/01/15 05:28:58;;;;;;;1999.90;611.80;;;11.60;99.90;;;;;;4949722;28;20047;-78
2023/01/15 05:31:24;;;;;;;1999.90;999.90;;;12.00;99.90;;;;;;4955871;28;20126;-80
2023/01/15 05:33:51;;;;;;;1999.90;735.97;;;8.80;99.90;;;;;;4953097;29;20295;-82
2023/01/15 05:36:25;;;;;;;1999.90;999.90;;;11.70;99.90;;;;;;4945886;28;20098;-79
2023/01/15 05:38:53;;;;;;;1999.90;999.90;;;10.70;99.90;;;;;;4949298;28;20091;-78
2023/01/15 05:44:08;;;;;;;1999.90;858.95;;;11.70;99.90;;;;;;4954466;29;20047;-79
2023/01/15 05:46:35;;;;;;;1999.90;999.90;;;11.60;99.90;;;;;;4952291;29;20476;-79
2023/01/15 05:49:06;;;;;;;1999.90;999.90;;;11.50;99.90;;;;;;4942841;28;20078;-79
2023/01/15 05:51:34;;;;;;;1999.90;999.90;;;12.20;99.90;;;;;;4946158;28;20047;-79
2023/01/15 05:54:00;;;;;;;1999.90;520.15;;;11.60;99.90;;;;;;4956157;29;20055;-79
2023/01/15 05:56:26;;;;;;;1999.90;902.08;;;11.50;99.90;;;;;;4949483;28;20051;-79
2023/01/15 05:58:52;;;;;;;1898.25;385.73;;;12.20;99.90;;;;;;4942807;28;20126;-80
2023/01/15 06:01:18;;;;;;;1999.90;999.90;;;11.40;99.90;;;;;;4954123;29;20086;-80
2023/01/15 06:03:45;;;;;;;1999.90;999.90;;;;;;;;;;4956057;28;20039;-79
2023/01/15 06:06:15;;;;;;;1999.90;999.90;;;12.90;99.90;;;;;;4949901;28;20055;-81
2023/01/15 06:08:41;;;;;;;1999.90;925.83;;;11.40;99.90;;;;;;4953497;28;20058;-79
2023/01/15 06:11:07;;;;;;;1999.90;999.90;;;11.40;99.90;;;;;;4956402;28;20051;-79
2023/01/15 06:13:33;;;;;;;1999.90;964.22;;;10.50;99.90;;;;;;4954578;28;20043;-80
2023/01/15 06:15:59;;;;;;;1999.90;999.90;;;11.20;99.90;;;;;;4955234;29;20492;-79
2023/01/15 06:18:25;;;;;;;1999.90;685.67;;;11.30;99.90;;;;;;4956229;28;20439;-79
2023/01/15 06:20:51;;;;;;;1999.90;999.90;;;12.50;99.90;;;;;;4954844;29;20051;-79
2023/01/15 06:23:17;;;;;;;1999.90;289.23;;;11.20;99.90;;;;;;4948879;28;20080;-80
2023/01/15 06:25:43;;;;;;;1999.90;999.90;;;15.20;99.90;;;;;;4953963;28;20412;-79
2023/01/15 06:28:09;;;;;;;1722.93;420.33;;;11.50;99.90;;;;;;4953132;28;20062;-78
2023/01/15 06:30:37;;;;;;;1999.90;692.05;;;11.30;99.90;;;;;;4962817;28;20043;-79
2023/01/15 06:33:04;;;;;;;1999.90;996.90;;;11.20;99.90;;;;;;4950277;28;20570;-80
2023/01/15 06:35:30;;;;;;;1999.90;999.90;;;11.30;99.90;;;;;;4953955;28;20066;-79
2023/01/15 06:37:55;;;;;;;1999.90;999.90;;;10.00;99.90;;;;;;4948537;29;20040;-81
2023/01/15 06:40:22;;;;;;;1999.90;999.90;;;11.30;99.90;;;;;;4957060;28;20043;-79
2023/01/15 06:48:23;;;;;;;1999.90;999.90;;;11.90;99.90;;;;;;4955778;29;20428;-79
2023/01/15 06:50:49;;;;;;;1999.90;999.90;;;11.20;99.90;;;;;;4952008;28;20050;-80
2023/01/15 06:53:15;;;;;;;1954.90;251.75;;;11.20;99.90;;;;;;4938702;28;20059;-79
2023/01/15 06:55:40;;;;;;;1999.90;999.90;;;11.20;99.90;;;;;;4947872;29;20054;-79
2023/01/15 06:58:06;;;;;;;1999.90;985.15;;;11.10;99.90;;;;;;4935835;29;20047;-79
2023/01/15 07:00:32;;;;;;;1999.90;934.13;;;11.20;99.90;;;;;;4948287;28;20518;-79
2023/01/15 07:03:02;;;;;;;1999.90;999.90;;;11.00;99.90;;;;;;4936047;29;20047;-79
2023/01/15 07:05:28;;;;;;;1999.90;999.90;;;11.10;99.90;;;;;;4935465;29;20087;-79
2023/01/15 07:07:54;;;;;;;1481.88;355.73;;;11.10;99.90;;;;;;4953744;28;20090;-79
2023/01/15 07:10:20;;;;;;;1999.90;547.90;;;11.20;99.90;;;;;;4952368;28;20047;-84
2023/01/15 07:12:45;;;;;;;1999.90;898.03;;;10.80;99.90;;;;;;4949694;28;20062;-80
2023/01/15 07:15:11;;;;;;;1999.90;999.90;;;12.30;99.90;;;;;;4953591;28;20055;-80
2023/01/15 07:17:37;;;;;;;1999.90;999.90;;;11.00;99.90;;;;;;4954309;28;20054;-80
2023/01/15 07:20:04;;;;;;;1999.90;999.90;;;7.60;99.90;;;;;;4952700;28;20050;-78
2023/01/15 07:22:30;;;;;;;1999.90;677.78;;;11.00;99.90;;;;;;4949611;28;20098;-83
2023/01/15 07:24:55;;;;;;;1999.90;952.17;;;11.50;99.90;;;;;;4944857;28;20047;-79
2023/01/15 07:27:21;;;;;;;1999.90;999.90;;;10.80;99.90;;;;;;4956418;28;20130;-79
2023/01/15 07:29:48;;;;;;;1965.75;463.35;;;10.30;99.90;;;;;;4949714;28;20837;-80
2023/01/15 07:32:14;;;;;;;1999.90;595.22;;;10.90;99.90;;;;;;4943437;28;20094;-80
2023/01/15 07:34:40;;;;;;;1999.90;913.13;;;10.20;99.90;;;;;;4936035;29;20078;-80
2023/01/15 07:37:06;;;;;;;1999.90;999.90;;;11.20;99.90;;;;;;4947738;28;20130;-79
2023/01/15 07:39:32;;;;;;;1999.90;999.90;;;11.00;99.90;;;;;;4941849;28;20066;-79
2023/01/15 07:50:15;;;;;;;1999.90;973.15;;;10.90;99.90;;;;;;4944992;28;20062;-79
2023/01/15 07:52:41;;;;;;;1999.90;999.90;;;10.10;99.90;;;;;;4940979;28;20078;-77
2023/01/15 07:55:08;;;;;;;1999.90;362.10;;;10.90;99.90;;;;;;4941123;28;20076;-80
2023/01/15 07:57:36;;;;;;;1999.90;922.38;;;10.60;99.90;;;;;;4949383;29;20178;-79
2023/01/15 08:00:02;;;;;;;1999.90;930.53;;;9.80;99.90;;;;;;4952167;28;20035;-78
2023/01/15 08:02:28;;;;;;;1999.90;999.90;;;10.70;99.90;;;;;;4949417;28;20058;-78
2023/01/15 08:04:54;;;;;;;1999.90;913.50;;;11.40;99.90;;;;;;4957594;28;20393;-79
2023/01/15 08:07:19;;;;;;;1999.90;879.67;;;11.90;99.90;;;;;;4953905;28;20399;-78
2023/01/15 08:09:45;;;;;;;1999.90;999.90;;;10.40;99.90;;;;;;4950704;28;20055;-80
2023/01/15 08:15:14;;;;;;;1999.90;403.85;;;10.80;99.90;;;;;;4961834;28;20051;-79
2023/01/15 08:17:45;;;;;;;1999.90;999.90;;;10.50;99.90;;;;;;4950913;28;20047;-79
2023/01/15 08:20:13;;;;;;;1999.90;999.90;;;11.20;99.90;;;;;;4932058;28;20047;-83
2023/01/15 08:22:40;;;;;;;1999.90;999.90;;;;;;;;;;4951611;28;20055;-79
2023/01/15 08:25:08;;;;;;;1999.90;870.45;;;11.40;99.90;;;;;;4938814;28;20040;-79
2023/01/15 08:27:35;;;;;;;1999.90;911.88;;;12.60;99.90;;;;;;4950768;28;20404;-78
2023/01/15 08:30:02;;;;;;;1999.90;690.80;;;10.80;99.90;;;;;;4947099;28;20127;-78
2023/01/15 08:32:28;;;;;;;1999.90;999.90;;;11.20;99.90;;;;;;4941585;28;20488;-79
2023/01/15 08:34:53;;;;;;;1999.90;477.08;;;11.00;99.90;;;;;;4946391;28;20059;-78
2023/01/15 08:37:19;;;;;;;1999.90;999.90;;;11.20;99.90;;;;;;4912677;29;20503;-81
2023/01/15 08:39:45;;;;;;;1999.90;999.90;;;11.20;99.90;;;;;;4960892;28;20043;-80
2023/01/15 08:42:10;;;;;;;1999.90;989.97;;;11.20;99.90;;;;;;4951144;28;20052;-79
2023/01/15 08:44:36;;;;;;;1999.90;999.90;;;11.20;99.90;;;;;;4944070;28;20482;-80
2023/01/15 08:47:02;;;;;;;1999.90;755.78;;;11.60;99.90;;;;;;4957991;28;20118;-79
2023/01/15 08:49:28;;;;;;;1999.90;999.90;;;10.90;99.90;;;;;;4952431;28;20051;-82
2023/01/15 08:51:53;;;;;;;1999.90;998.83;;;10.00;99.90;;;;;;4937658;28;20142;-80
2023/01/15 08:54:21;;;;;;;1999.90;934.70;;;8.40;99.90;;;;;;4945182;28;20039;-83
2023/01/15 08:56:48;;;;;;;1999.90;870.67;;;11.00;99.90;;;;;;4948849;28;20050;-82
2023/01/15 08:59:14;;;;;;;1999.90;999.90;;;10.20;99.90;;;;;;4939416;28;20055;-83
2023/01/15 09:01:40;;;;;;;1999.90;902.22;;;10.20;99.90;;;;;;4949160;28;20126;-84
2023/01/15 09:04:06;;;;;;;1999.90;699.97;;;10.10;99.90;;;;;;4952803;28;20048;-85
2023/01/15 09:06:32;;;;;;;1999.90;999.90;;;;;;;;;;4954461;28;20043;-84
2023/01/15 09:08:59;;;;;;;1999.90;999.90;;;11.40;99.90;;;;;;4938571;29;20073;-83
2023/01/15 09:11:25;;;;;;;1999.90;999.90;;;11.80;99.90;;;;;;4954303;28;20043;-82
2023/01/15 09:13:50;;;;;;;1999.90;934.58;;;10.30;99.90;;;;;;4955580;29;20051;-82
2023/01/15 09:16:17;;;;;;;1999.90;659.25;;;10.40;99.90;;;;;;4953533;29;20439;-82
2023/01/15 09:18:43;;;;;;;1999.90;906.15;;;;;;;;;;4955191;28;20047;-86
2023/01/15 09:21:09;;;;;;;1999.90;999.90;;;11.50;99.90;;;;;;4935414;29;20078;-87
2023/01/15 09:23:35;;;;;;;1999.90;858.35;;;11.60;99.90;;;;;;4937109;29;20060;-85
2023/01/15 09:26:05;;;;;;;1999.90;999.90;;;7.40;99.90;;;;;;4946322;28;20496;-85
2023/01/15 09:28:32;;;;;;;1999.90;999.90;;;9.90;99.90;;;;;;4956253;28;20043;-86
2023/01/15 09:30:57;;;;;;;1999.90;869.70;;;11.30;99.90;;;;;;4957013;28;20063;-87
2023/01/15 09:33:23;;;;;;;1999.90;917.00;;;10.40;99.90;;;;;;4940535;29;20113;-84
2023/01/15 09:35:50;;;;;;;1999.90;999.90;;;11.80;99.90;;;;;;4940198;29;20051;-84
2023/01/15 09:38:17;;;;;;;1999.90;999.90;;;11.40;99.90;;;;;;4954441;28;20098;-84
2023/01/15 09:40:49;;;;;;;1999.90;879.67;;;11.70;99.90;;;;;;4937724;29;20063;-86
2023/01/15 09:43:37;;;;;;;1999.90;999.90;;;12.30;99.90;;;;;;4920712;29;20093;-84
2023/01/15 09:46:03;;;;;;;1999.90;867.47;;;;;;;;;;4953235;28;20059;-88
2023/01/15 09:48:32;;;;;;;1999.90;911.53;;;11.30;99.90;;;;;;4956379;28;20043;-83
2023/01/15 09:51:31;;;;;;;1999.90;385.13;;;12.30;99.90;;;;;;4955491;28;20061;-85
2023/01/15 09:54:11;;;;;;;1999.90;914.20;;;10.90;99.90;;;;;;4950205;29;20055;-83
2023/01/15 09:56:38;;;;;;;1999.90;999.90;;;;;;;;;;4952176;28;20043;-83
2023/01/15 09:59:32;;;;;;;1999.90;999.90;;;10.00;99.90;;;;;;4953428;28;20047;-84
2023/01/15 10:02:00;;;;;;;1999.90;572.88;;;11.00;99.90;;;;;;4952213;29;20484;-83
2023/01/15 10:04:36;;;;;;;1999.90;999.90;;;10.20;99.90;;;;;;4951908;28;20061;-82
2023/01/15 10:07:17;;;;;;;1999.90;999.90;;;10.70;99.90;;;;;;4954754;29;20055;-83
2023/01/15 10:09:45;;;;;;;1999.90;770.60;;;10.80;99.90;;;;;;4939305;29;20047;-83
2023/01/15 10:12:42;;;;;;;1999.90;999.90;;;10.70;99.90;;;;;;4953379;28;20055;-86
2023/01/15 10:15:18;;;;;;;1999.90;999.90;;;14.20;99.90;;;;;;4959431;28;20047;-92
2023/01/15 10:17:56;;;;;;;1999.90;900.78;;;10.80;99.90;;;;;;4954462;29;20055;-82
2023/01/15 10:20:34;;;;;;;1999.90;749.35;;;12.80;99.90;;;;;;4953488;28;20054;-83
2023/01/15 10:23:15;;;;;;;1999.90;940.25;;;10.40;99.90;;;;;;4955003;29;20051;-82
2023/01/15 10:25:48;;;;;;;1999.90;999.90;;;10.90;99.90;;;;;;4952541;28;20047;-81
2023/01/15 10:28:28;;;;;;;1999.90;978.13;;;11.90;99.90;;;;;;4938405;29;20047;-82
2023/01/15 10:30:55;;;;;;;1999.90;999.90;;;12.00;99.90;;;;;;4953360;28;20051;-83
2023/01/15 10:33:55;;;;;;;1999.90;999.90;;;12.10;99.90;;;;;;4949636;28;20496;-84
2023/01/15 10:36:39;;;;;;;1999.90;999.90;;;12.20;99.90;;;;;;4952200;28;20492;-83
2023/01/15 10:39:18;;;;;;;1999.90;775.08;;;12.00;99.90;;;;;;4949434;29;20070;-82
2023/01/15 10:41:44;;;;;;;;;;;11.80;99.90;;;;;;4954516;28;20404;-81
2023/01/15 10:44:24;;;;;;;1999.90;999.90;;;11.90;99.90;;;;;;4966660;28;19922;-82
2023/01/15 10:46:57;;;;;;;1999.90;999.90;;;11.50;99.90;;;;;;4954606;28;20055;-82
2023/01/15 10:49:29;;;;;;;1999.90;845.25;;;12.00;99.90;;;;;;4952653;28;20101;-83
2023/01/15 10:52:28;;;;;;;1999.90;942.25;;;11.70;99.90;;;;;;4952388;28;20581;-83
2023/01/15 10:55:18;;;;;;;1999.90;947.88;;;12.10;99.90;;;;;;4947595;29;20385;-83
2023/01/15 10:57:52;;;;;;;1999.90;999.90;;;11.50;99.90;;;;;;4951488;28;20433;-82
2023/01/15 11:00:21;;;;;;;1999.90;995.83;;;11.20;99.90;;;;;;4944531;28;20054;-82
2023/01/15 11:02:56;;;;;;;1999.90;999.90;;;11.90;99.90;;;;;;4933572;29;20039;-81
2023/01/15 11:05:21;;;;;;;1999.90;999.90;;;11.80;99.90;;;;;;4945258;28;20408;-81
2023/01/15 11:07:50;;;;;;;1999.90;999.90;;;11.70;99.90;;;;;;4952154;28;20047;-81
2023/01/15 11:10:20;;;;;;;1999.90;984.70;;;11.20;99.90;;;;;;4952340;28;20057;-83
2023/01/15 11:21:24;;;;;;;1999.90;724.22;;;11.50;99.90;;;;;;4949015;29;20059;-82
2023/01/15 11:23:51;;;;;;;1999.90;999.90;;;10.20;99.90;;;;;;4951460;28;20047;-83
2023/01/15 11:26:22;;;;;;;1999.90;987.10;;;12.20;99.90;;;;;;4929193;29;20126;-84
2023/01/15 11:28:48;;;;;;;1999.90;999.90;;;11.40;99.90;;;;;;4945154;28;20492;-82
2023/01/15 11:31:15;;;;;;;1999.90;986.47;;;12.30;99.90;;;;;;4929586;29;20134;-82
2023/01/15 11:34:02;;;;;;;1999.90;999.90;;;13.10;99.90;;;;;;4950198;28;20043;-82
2023/01/15 11:36:29;;;;;;;1999.90;999.90;;;12.60;99.90;;;;;;4948714;28;20121;-84
2023/01/15 11:38:55;;;;;;;1999.90;999.90;;;10.80;99.90;;;;;;4950538;28;20464;-83
2023/01/15 11:50:42;;;;;;;1999.90;999.90;;;12.20;99.90;;;;;;4965837;28;20391;-85
2023/01/15 11:52:47;;;;;;;1999.90;999.90;;;11.00;99.90;;;;;;4950555;28;20215;-82
2023/01/15 11:55:17;;;;;;;1999.90;999.90;;;10.90;99.90;;;;;;4947377;28;20058;-88
2023/01/15 11:57:44;;;;;;;1999.90;949.85;;;11.20;99.90;;;;;;4950277;28;20043;-84
2023/01/15 12:00:41;;;;;;;1999.90;779.20;;;12.80;99.90;;;;;;4950843;28;20062;-85
2023/01/15 12:03:17;;;;;;;1999.90;865.75;;;11.20;99.90;;;;;;4950995;28;20739;-82
2023/01/15 12:05:58;;;;;;;1999.90;999.90;;;12.50;99.90;;;;;;4942688;28;20066;-83
2023/01/15 12:08:44;;;;;;;1999.90;848.35;;;13.40;99.90;;;;;;4950962;28;20554;-83
2023/01/15 12:11:36;;;;;;;1999.90;817.35;;;13.40;99.90;;;;;;4947715;28;20074;-83
2023/01/15 12:14:29;;;;;;;1999.90;639.72;;;11.70;99.90;;;;;;4951345;28;20039;-84
2023/01/15 12:17:15;;;;;;;1999.90;741.05;;;13.20;99.90;;;;;;4943093;28;20130;-87
2023/01/15 12:20:10;;;;;;;1999.90;999.90;;;14.10;99.90;;;;;;4953470;28;20043;-83
2023/01/15 12:22:44;;;;;;;1999.90;999.90;;;17.10;99.90;;;;;;4921954;29;20389;-84
2023/01/15 12:25:25;;;;;;;1999.90;852.20;;;12.70;99.90;;;;;;4945756;28;20524;-83
2023/01/15 12:28:06;;;;;;;1999.90;932.22;;;14.70;99.90;;;;;;4948066;28;20419;-82
2023/01/15 12:31:05;;;;;;;1999.90;596.03;;;12.70;99.90;;;;;;4943142;28;20082;-82
2023/01/15 12:33:57;;;;;;;1999.90;864.72;;;9.80;99.90;;;;;;4938664;28;20047;-82
2023/01/15 12:36:45;;;;;;;1999.90;964.67;;;10.50;99.90;;;;;;4960583;28;20055;-83
2023/01/15 12:39:29;;;;;;;1999.90;999.90;;;13.30;99.90;;;;;;4948906;28;20047;-81
2023/01/15 12:44:59;;;;;;;1999.90;863.47;;;13.40;99.90;;;;;;4945045;28;20055;-83
2023/01/15 12:47:38;;;;;;;1999.90;398.10;;;14.30;99.90;;;;;;4943260;28;20501;-81
2023/01/15 12:50:28;;;;;;;1999.90;999.90;;;12.30;99.90;;;;;;4930611;28;20043;-82
2023/01/15 12:53:26;;;;;;;1999.90;882.15;;;11.40;99.90;;;;;;4938450;28;20039;-81
2023/01/15 12:56:13;;;;;;;1999.90;983.85;;;10.90;99.90;;;;;;4941070;29;20172;-81
2023/01/15 12:58:47;;;;;;;1999.90;766.08;;;11.90;99.90;;;;;;4951224;29;20087;-85
2023/01/15 13:01:29;;;;;;;1999.90;650.70;;;14.10;99.90;;;;;;4954660;28;20043;-85
2023/01/15 13:04:13;;;;;;;1999.90;976.08;;;11.00;99.90;;;;;;4956388;28;20047;-84
2023/01/15 13:06:47;;;;;;;1999.90;788.38;;;15.20;99.90;;;;;;4953661;28;20062;-82
2023/01/15 13:09:38;;;;;;;1999.90;999.90;;;13.50;99.90;;;;;;4952669;28;20074;-82
2023/01/15 13:12:11;;;;;;;1999.90;292.60;;;13.20;99.90;;;;;;4959516;28;20042;-83
2023/01/15 13:14:37;;;;;;;1999.90;749.95;;;13.10;99.90;;;;;;4947061;29;20055;-82
2023/01/15 13:17:08;;;;;;;1999.90;999.90;;;10.80;99.90;;;;;;4947424;28;20039;-84